Greenville, SC (29611)

1:44 AM EDT on August 29, 2016 (GMT -0400)
APRSWXNET | | Change Station

Elev 961 ft 34.84 °N, 82.40 °W | Updated 34 minutes ago

Clear
Clear
75 °F
Feels Like 77 °F
N
0
Wind Variable Wind from NE
Gusts 0.0 mph

Today
High -- | Low -- °F
--% Chance of Precip.
Yesterday
High -- | Low -- °F
Precip. -- in
Pressure 30.14 in
Visibility 10.0 miles
Clouds Clear
Heat Index 77 °F
Dew Point 65 °F
Humidity 71%
Rainfall in
Snow Depth Not available.
7:00 AM 7:59 PM
Waning Crescent, 11% visible
METAR KGMU 290453Z AUTO 03006KT 10SM CLR 23/17 A3017 RMK AO2 SLP205 T02330172 403280228
Pressure 30.14 in
Visibility 10.0 miles
Clouds Clear
Heat Index 77 °F
Dew Point 65 °F
Humidity 71%
Rainfall in
Snow Depth Not available.
7:00 AM 7:59 PM
Waning Crescent, 11% visible
METAR KGMU 290453Z AUTO 03006KT 10SM CLR 23/17 A3017 RMK AO2 SLP205 T02330172 403280228
The area of storminess, previously known as Invest 99-L that we were monitoring for days, finally developed into Tropical Depression Nine near the Florida Keys on Sunday evening.

There remains a large degree of uncertainty around how much this system will strengthen once it gets into the southeast Gulf of Mexico. For now, the clockwise flow around upper-level high pressure over the eastern United States will steer Tropical Depression Nine west-northwest toward the Gulf. That high will weaken by Tuesday, allowing this system to move more north, and then eventually northeast the next several days on a path toward the Florida Gulf Coast.

10-Day Weather Forecast

Almanac

Astronomy

Aug. 29, 2016 Rise Set
Actual Time
Civil Twilight
Nautical Twilight
Astronomical Twilight
Moon
Length of Visible Light
Length of Day
Tomorrow will be .
, % of the Moon is Illuminated

Today's Extremes

State Highs State Lows

Community

WunderPhotos

Upload Photos

1,935,800 photos uploaded!

WunderBlog® & News

Nearby

Air Quality

  Air Quality AQ Index Pollutant
Not available.

Snow Depth

Station Depth Elevation

Earthquake Activity

City Distance Mag. Time & Date
Minimum magnitude displayed is 2.5.

Coastal Water Temperatures

Place Temperature

Stations

Nearby Weather Stations

Station Location Temp. Windchill Dew Point Humidity Wind Precip. Elev Updated Type
                   

Watches & Warnings

There are currently no watches in effect.